| time (UTC) | temp C | wind direction | speed KPH | gust KPH | rain 1hr cm | rain 24hr cm | rain mn cm | humidity % | barometer mb |
| 20260508015907 | 6 | 279 | 3.2 | 9.7 | 0.00 | 0.13 | 0.13 | 92 | 1005.2 |
| 20260508014406 | 6 | 279 | 4.8 | 9.7 | 0.00 | 0.13 | 0.13 | 92 | 1005.2 |
| 20260508012901 | 6 | 279 | 1.6 | 6.4 | 0.00 | 0.13 | 0.13 | 92 | 1005.2 |
| 20260508011400 | 6 | 279 | 0.0 | 4.8 | 0.00 | 0.13 | 0.13 | 91 | 1005.2 |
| 20260508005900 | 6 | 279 | 3.2 | 9.7 | 0.00 | 0.13 | 0.13 | 91 | 1005.1 |
| 20260508004400 | 6 | 279 | 3.2 | 9.7 | 0.00 | 0.13 | 0.13 | 91 | 1005.0 |
| 20260508002855 | 6 | 279 | 3.2 | 9.7 | 0.00 | 0.13 | 0.13 | 90 | 1004.7 |
| 20260508001355 | 6 | 280 | 4.8 | 20.9 | 0.00 | 0.13 | 0.13 | 88 | 1004.5 |
| 20260507235857 | 6 | 261 | 4.8 | 20.9 | 0.00 | 0.13 | 0.13 | 86 | 1004.4 |
| 20260507234353 | 7 | 265 | 3.2 | 14.5 | 0.00 | 0.13 | 0.13 | 84 | 1004.3 |
| 20260507232851 | 7 | 262 | 4.8 | 22.5 | 0.00 | 0.13 | 0.13 | 83 | 1004.2 |
| 20260507231353 | 7 | 251 | 6.4 | 19.3 | 0.00 | 0.13 | 0.13 | 82 | 1004.0 |
| 20260507222852 | 8 | 261 | 6.4 | 17.7 | 0.00 | 0.13 | 0.13 | 80 | 1003.7 |
| 20260507221356 | 8 | 291 | 6.4 | 17.7 | 0.00 | 0.13 | 0.13 | 80 | 1003.6 |
| 20260507214346 | 8 | 275 | 4.8 | 17.7 | 0.00 | 0.13 | 0.13 | 78 | 1003.2 |
| 20260507212846 | 8 | 261 | 4.8 | 16.1 | 0.00 | 0.13 | 0.13 | 79 | 1003.2 |
| 20260507204346 | 9 | 294 | 9.7 | 22.5 | 0.00 | 0.13 | 0.13 | 77 | 1002.9 |
| 20260507202842 | 9 | 294 | 4.8 | 25.7 | 0.00 | 0.13 | 0.13 | 82 | 1002.8 |
| 20260507201343 | 8 | 279 | 3.2 | 12.9 | 0.00 | 0.13 | 0.13 | 86 | 1002.8 |
| 20260507195843 | 7 | 279 | 3.2 | 16.1 | 0.00 | 0.13 | 0.13 | 86 | 1002.7 |
| 20260507194341 | 7 | 285 | 9.7 | 19.3 | 0.00 | 0.13 | 0.13 | 86 | 1002.8 |
| 20260507185840 | 9 | 248 | 12.9 | 29.0 | 0.00 | 0.13 | 0.13 | 77 | 1002.6 |
| 20260507184341 | 10 | 300 | 9.7 | 29.0 | 0.00 | 0.13 | 0.13 | 77 | 1002.6 |
| 20260507182840 | 10 | 247 | 3.2 | 8.0 | 0.00 | 0.15 | 0.13 | 78 | 1002.4 |
| 20260507181339 | 10 | 247 | 1.6 | 11.3 | 0.00 | 0.15 | 0.13 | 80 | 1002.5 |
| 20260507175837 | 9 | 246 | 3.2 | 12.9 | 0.00 | 0.15 | 0.13 | 83 | 1002.6 |
| 20260507174336 | 9 | 219 | 1.6 | 9.7 | 0.00 | 0.15 | 0.13 | 87 | 1002.8 |
| 20260507172834 | 8 | 215 | 3.2 | 14.5 | 0.00 | 0.15 | 0.13 | 90 | 1003.0 |
| 20260507171335 | 8 | 198 | 1.6 | 9.7 | 0.03 | 0.18 | 0.13 | 92 | 1003.1 |
| 20260507165836 | 8 | 275 | 1.6 | 12.9 | 0.05 | 0.20 | 0.13 | 93 | 1003.2 |
| 20260507164335 | 8 | 277 | 3.2 | 17.7 | 0.13 | 0.23 | 0.13 | 93 | 1003.2 |
| 20260507162835 | 8 | 229 | 3.2 | 9.7 | 0.13 | 0.23 | 0.13 | 93 | 1003.3 |
| 20260507161334 | 8 | 188 | 1.6 | 14.5 | 0.10 | 0.23 | 0.10 | 92 | 1003.5 |
| 20260507155835 | 8 | 265 | 0.0 | 1.6 | 0.08 | 0.23 | 0.08 | 92 | 1003.5 |
| 20260507154337 | 8 | 265 | 0.0 | 4.8 | 0.00 | 0.20 | 0.00 | 92 | 1003.6 |
| 20260507152833 | 7 | 265 | 0.0 | 4.8 | 0.00 | 0.23 | 0.00 | 92 | 1003.7 |
| 20260507151333 | 7 | 265 | 0.0 | 4.8 | 0.00 | 0.28 | 0.00 | 92 | 1003.9 |
| 20260507145832 | 7 | 265 | 1.6 | 6.4 | 0.00 | 0.33 | 0.00 | 91 | 1004.0 |
| 20260507144332 | 7 | 265 | 1.6 | 9.7 | 0.00 | 0.38 | 0.00 | 92 | 1003.9 |
| 20260507141332 | 7 | 265 | 1.6 | 11.3 | 0.00 | 0.43 | 0.00 | 92 | 1004.2 |
| 20260507135830 | 7 | 264 | 3.2 | 9.7 | 0.00 | 0.46 | 0.00 | 93 | 1004.3 |
| 20260507132834 | 7 | 264 | 1.6 | 11.3 | 0.00 | 0.48 | 0.00 | 93 | 1004.2 |
| 20260507131333 | 7 | 264 | 1.6 | 6.4 | 0.00 | 0.48 | 0.00 | 93 | 1004.2 |
| 20260507125830 | 7 | 264 | 1.6 | 9.7 | 0.00 | 0.51 | 0.00 | 93 | 1004.2 |
| 20260507124329 | 7 | 263 | 1.6 | 9.7 | 0.00 | 0.51 | 0.00 | 94 | 1004.2 |
| 20260507122834 | 6 | 264 | 3.2 | 17.7 | 0.00 | 0.53 | 0.00 | 93 | 1004.3 |
| 20260507115823 | 6 | 221 | 3.2 | 8.0 | 0.00 | 0.58 | 0.00 | 93 | 1004.3 |
| 20260507114321 | 6 | 221 | 1.6 | 8.0 | 0.00 | 0.64 | 0.00 | 93 | 1004.3 |
| 20260507111321 | 6 | 219 | 1.6 | 8.0 | 0.00 | 0.66 | 0.00 | 93 | 1004.3 |
| 20260507105824 | 6 | 219 | 1.6 | 9.7 | 0.00 | 0.66 | 0.00 | 93 | 1004.4 |
| 20260507104320 | 6 | 265 | 1.6 | 11.3 | 0.00 | 0.66 | 0.00 | 93 | 1004.4 |
| 20260507102821 | 6 | 275 | 1.6 | 6.4 | 0.00 | 0.66 | 0.00 | 93 | 1004.4 |
| 20260507101321 | 6 | 275 | 1.6 | 9.7 | 0.00 | 0.66 | 0.00 | 93 | 1004.3 |
| 20260507095819 | 6 | 275 | 0.0 | 3.2 | 0.00 | 0.66 | 0.00 | 92 | 1004.0 |
| 20260507094319 | 6 | 275 | 0.0 | 4.8 | 0.00 | 0.66 | 0.00 | 93 | 1004.1 |
| 20260507092818 | 6 | 275 | 0.0 | 4.8 | 0.00 | 0.66 | 0.00 | 93 | 1004.3 |
| 20260507091311 | 6 | 275 | 1.6 | 9.7 | 0.00 | 0.66 | 0.00 | 93 | 1004.4 |
| 20260507082807 | 6 | 275 | 1.6 | 6.4 | 0.00 | 0.66 | 0.00 | 93 | 1004.7 |
| 20260507081306 | 6 | 275 | 0.0 | 3.2 | 0.00 | 0.66 | 0.00 | 93 | 1004.6 |
| 20260507075803 | 6 | 275 | 0.0 | 0.0 | 0.00 | 0.66 | 0.00 | 93 | 1004.4 |
| 20260507074303 | 6 | 275 | 0.0 | 0.0 | 0.00 | 0.66 | 0.00 | 93 | 1004.5 |
| 20260507072803 | 6 | 275 | 0.0 | 0.0 | 0.00 | 0.66 | 0.00 | 93 | 1004.5 |
| 20260507071301 | 6 | 275 | 0.0 | 0.0 | 0.00 | 0.66 | 0.00 | 93 | 1004.6 |
| 20260507065758 | 6 | 275 | 0.0 | 0.0 | 0.00 | 0.66 | 0.00 | 94 | 1004.7 |
| 20260507055750 | 6 | 275 | 1.6 | 4.8 | 0.00 | 0.66 | 0.00 | 94 | 1005.2 |
| 20260507054250 | 6 | 275 | 1.6 | 6.4 | 0.00 | 0.66 | 0.00 | 94 | 1005.3 |
| 20260507051250 | 6 | 275 | 0.0 | 3.2 | 0.00 | 0.66 | 0.00 | 93 | 1005.6 |
| 20260507045750 | 6 | 275 | 0.0 | 0.0 | 0.00 | 0.66 | 0.00 | 93 | 1005.8 |
| 20260507044252 | 6 | 275 | 0.0 | 1.6 | 0.00 | 0.66 | 0.00 | 93 | 1005.7 |
| 20260507042749 | 6 | 275 | 0.0 | 4.8 | 0.00 | 0.66 | 0.00 | 93 | 1005.6 |
| 20260507041248 | 6 | 275 | 1.6 | 9.7 | 0.00 | 0.66 | 0.00 | 93 | 1005.7 |
| 20260507035748 | 6 | 275 | 3.2 | 12.9 | 0.00 | 0.66 | 0.66 | 93 | 1005.8 |
| 20260507032747 | 6 | 275 | 1.6 | 9.7 | 0.00 | 0.66 | 0.66 | 93 | 1006.2 |
| 20260507031251 | 6 | 275 | 1.6 | 6.4 | 0.00 | 0.66 | 0.66 | 93 | 1006.4 |
| 20260507025748 | 6 | 275 | 0.0 | 11.3 | 0.00 | 0.66 | 0.66 | 93 | 1006.4 |
| 20260507024248 | 6 | 275 | 1.6 | 9.7 | 0.00 | 0.66 | 0.66 | 93 | 1006.4 |
| 20260507022747 | 6 | 275 | 1.6 | 9.7 | 0.00 | 0.66 | 0.66 | 92 | 1006.4 |
| 20260507021241 | 6 | 276 | 3.2 | 6.4 | 0.00 | 0.66 | 0.66 | 93 | 1006.4 |